Home > Products > Valid Products > TAF

000
FTUS43 KDMX 310350 AAB
TAFFOD
TAF AMD
KFOD 310350Z 3104/3124 36013G20KT P6SM SCT025 BKN035
      TEMPO 3104/3106 SCT018 BKN025
     FM310600 36015G25KT P6SM SCT025 BKN035
     FM311200 36014KT P6SM SCT025 BKN035
     FM311600 36014KT P6SM SCT080=



000
FTUS43 KDMX 310334 AAB
TAFDSM
TAF AMD
KDSM 310334Z 3104/3124 35015G22KT P6SM SCT028 BKN035
      TEMPO 3104/3106 SCT022 BKN028 BKN035
     FM310600 35018G28KT P6SM SCT025 BKN035
     FM311200 35012G18KT P6SM SCT080=



000
FTUS43 KDMX 310231 AAA
TAFDSM
TAF AMD
KDSM 310231Z 3103/3124 35015G22KT P6SM SCT025 BKN035
     FM310700 35018G28KT P6SM SCT025 BKN035
     FM311200 35012G18KT P6SM SCT080=



000
FTUS43 KDMX 310121 AAA
TAFFOD
TAF AMD
KFOD 310121Z 3101/3124 36013G20KT P6SM BKN025 BKN040
      TEMPO 3103/3105 SCT014 BKN018 BKN020
     FM310600 36015G25KT P6SM SCT015 BKN025
     FM311200 36014KT P6SM SCT025 BKN035
     FM311600 36014KT P6SM SCT080=



000
FTUS43 KDMX 302329
TAFMCW
TAF
KMCW 302329Z 3100/3124 34015G22KT P6SM SCT025 BKN040
     FM310600 34018G28KT P6SM SCT025 BKN030
     FM311200 34014G20KT P6SM SCT080=



000
FTUS43 KDMX 302329
TAFDSM
TAF
KDSM 302329Z 3100/3124 33010KT P6SM SCT080 BKN100
     FM310300 35015G22KT P6SM SCT025 BKN035
     FM310700 35018G28KT P6SM SCT025 BKN035
     FM311200 35012G18KT P6SM SCT080=



000
FTUS43 KDMX 302329
TAFALO
TAF
KALO 302329Z 3100/3124 34011KT P6SM SCT025 BKN040
     FM310300 34016G23KT P6SM SCT025 BKN040
     FM310800 34022G36KT P6SM SCT025 BKN030
     FM311400 34014G25KT P6SM SCT080=



000
FTUS43 KDMX 302329
TAFFOD
TAF
KFOD 302329Z 3100/3124 36013G20KT P6SM SCT025 BKN040
     FM310600 36015G25KT P6SM SCT015 BKN030
     FM311200 36014KT P6SM SCT025 BKN035
     FM311600 36014KT P6SM SCT080=



000
FTUS43 KDMX 302329
TAFOTM
TAF
KOTM 302329Z 3100/3124 30008KT P6SM SCT080 BKN100
     FM310500 34015G22KT P6SM SCT025 BKN040
     FM310800 35018G28KT P6SM SCT030
     FM311400 35015G22KT P6SM SCT080=



000
FTUS43 KDMX 301734
TAFDSM
TAF
KDSM 301734Z 3018/3118 22003KT P6SM SCT100
     FM301900 30008KT P6SM SCT080 BKN100
     FM310100 35015G22KT P6SM SCT025 BKN030
     FM310500 35016G30KT P6SM SCT030
     FM311100 35012G20KT P6SM SKC=



000
FTUS43 KDMX 301734
TAFOTM
TAF
KOTM 301734Z 3018/3118 15010KT P6SM SCT090
     FM302300 30008KT P6SM SCT080 BKN100
     FM310200 34015G22KT P6SM SCT025 BKN040
     FM310600 35018G32KT P6SM SCT030
     FM311400 35015G23KT P6SM SKC=



000
FTUS43 KDMX 301734
TAFFOD
TAF
KFOD 301734Z 3018/3118 19004KT P6SM SCT080 BKN090
     FM301900 34010KT P6SM SCT090
     FM310200 36013G20KT P6SM SCT025 BKN040
     FM310600 36013KT P6SM SCT040
     FM311400 36010KT P6SM SKC=



000
FTUS43 KDMX 301734
TAFDSM
TAF
KDSM 301734Z 3018/3118 22003KT P6SM SCT100
     FM301900 30008KT P6SM SCT080 BKN100
     FM310100 35015G22KT P6SM SCT025 BKN030
     FM310500 35016G30KT P6SM SCT030
     FM311100 35012G20KT P6SM SKC=



000
FTUS43 KDMX 301734
TAFOTM
TAF
KOTM 301734Z 3018/3118 15010KT P6SM SCT090
     FM302300 30008KT P6SM SCT080 BKN100
     FM310200 34015G22KT P6SM SCT025 BKN040
     FM310600 35018G32KT P6SM SCT030
     FM311400 35015G23KT P6SM SKC=



000
FTUS43 KDMX 301734
TAFMCW
TAF
KMCW 301734Z 3018/3118 VRB05KT P6SM OVC060
     FM302100 34011KT P6SM SCT025 BKN035
     FM302300 34015G22KT P6SM VCSH BKN022
     FM310300 34022G35KT P6SM SCT025 BKN040
     FM310900 34014G20KT P6SM SKC=



000
FTUS43 KDMX 301734
TAFALO
TAF
KALO 301734Z 3018/3118 16007KT P6SM FEW070 BKN100
     FM302300 34011KT P6SM SCT025 BKN040
     FM310100 34016G23KT P6SM VCSH BKN025 BKN040
     FM310400 34022G36KT P6SM SCT025 BKN040
     FM310900 34016G28KT P6SM SKC=



000
FTUS43 KDMX 301734
TAFMCW
TAF
KMCW 301734Z 3018/3118 VRB05KT P6SM OVC060
     FM302100 34011KT P6SM SCT025 BKN035
     FM302300 34015G22KT P6SM VCSH BKN022
     FM310300 34022G35KT P6SM SCT025 BKN040
     FM310900 34014G20KT P6SM SKC=



000
FTUS43 KDMX 301734
TAFFOD
TAF
KFOD 301734Z 3018/3118 19004KT P6SM SCT080 BKN090
     FM301900 34010KT P6SM SCT090
     FM310200 36013G20KT P6SM SCT025 BKN040
     FM310600 36013KT P6SM SCT040
     FM311400 36010KT P6SM SKC=



000
FTUS43 KDMX 301734
TAFALO
TAF
KALO 301734Z 3018/3118 16007KT P6SM FEW070 BKN100
     FM302300 34011KT P6SM SCT025 BKN040
     FM310100 34016G23KT P6SM VCSH BKN025 BKN040
     FM310400 34022G36KT P6SM SCT025 BKN040
     FM310900 34016G28KT P6SM SKC=



000
FTUS43 KDMX 301203 RRA
TAFDSM
TAF
KDSM 301203Z 3012/3112 VRB05KT P6SM SCT090
     FM310000 35015G22KT P6SM SCT025 BKN040=



000
FTUS43 KDMX 301203 RRA
TAFFOD
TAF
KFOD 301203Z 3012/3112 VRB04KT P6SM SCT090
     FM302200 36013G19KT P6SM SCT025 BKN040=



000
FTUS43 KDMX 301203 RRA
TAFOTM
TAF
KOTM 301203Z 3012/3112 VRB06KT P6SM SCT100
     FM310100 34015G22KT P6SM SCT025 BKN040=



000
FTUS43 KDMX 301203 RRA
TAFALO
TAF
KALO 301203Z 3012/3112 VRB05KT P6SM FEW070 BKN090
     FM302300 34016G23KT P6SM SCT025 BKN040=



000
FTUS43 KDMX 301203 RRA
TAFMCW
TAF
KMCW 301203Z 3012/3112 VRB05KT P6SM SCT060 BKN090
     FM302100 34016G23KT P6SM SCT025 BKN035=



000
FTUS43 KDMX 300520
TAFFOD
TAF
KFOD 300520Z 3006/3106 16005KT P6SM BKN070
     FM310100 35012G18KT P6SM SKC=



000
FTUS43 KDMX 300520
TAFMCW
TAF
KMCW 300520Z 3006/3106 18007KT P6SM BKN070
     FM302100 34015G23KT P6SM SKC=



000
FTUS43 KDMX 300520
TAFALO
TAF
KALO 300520Z 3006/3106 15004KT P6SM BKN070
     FM310100 35014G21KT P6SM SKC=



000
FTUS43 KDMX 300520
TAFDSM
TAF
KDSM 300520Z 3006/3106 15008KT P6SM BKN070
     FM310200 35014G21KT P6SM SKC=



000
FTUS43 KDMX 300520
TAFOTM
TAF
KOTM 300520Z 3006/3106 15007KT P6SM BKN070
     FM310400 35012G18KT P6SM SKC=



000
FTUS43 KDMX 292321
TAFMCW
TAF
KMCW 292321Z 3000/3024 18004KT P6SM SKC
     FM300400 18004KT P6SM BKN070=



000
FTUS43 KDMX 292321
TAFDSM
TAF
KDSM 292321Z 3000/3024 15004KT P6SM SKC
     FM300500 16006KT P6SM BKN070=



000
FTUS43 KDMX 292321
TAFALO
TAF
KALO 292321Z 3000/3024 24004KT P6SM SKC
     FM300600 15004KT P6SM BKN070=



000
FTUS43 KDMX 292321
TAFOTM
TAF
KOTM 292321Z 3000/3024 18006KT P6SM SKC
     FM300900 15007KT P6SM BKN070=



000
FTUS43 KDMX 292321
TAFFOD
TAF
KFOD 292321Z 3000/3024 18004KT P6SM SKC
     FM300300 16005KT P6SM BKN070=



000
FTUS43 KDMX 292117 AAA
TAFALO
TAF AMD
KALO 292117Z 2921/3018 30008KT P6SM SCT025
     FM300000 24004KT P6SM SCT025
     FM301100 17004KT P6SM OVC060
     FM301700 29008KT P6SM VCSH OVC035=



000
FTUS43 KDMX 291905 AAA
TAFMCW
TAF AMD
KMCW 291905Z 2919/3018 30008KT P6SM SCT025
     FM300000 21004KT P6SM SKC
     FM301100 17004KT P6SM OVC060
     FM301600 29008KT P6SM VCSH OVC035=



000
FTUS43 KDMX 291500 AAA
TAFDSM
TAF AMD
KDSM 291538Z 2916/3012 34009KT P6SM OVC030
     FM291800 30009KT P6SM SCT035
     FM292100 23006KT P6SM SKC
     FM300400 17004KT P6SM SCT150=



000
FTUS43 KDMX 291535 AAA
TAFOTM
TAF AMD
KOTM 291535Z 2916/3012 31010KT P6SM SCT040
     FM292300 19004KT P6SM SKC
     FM300800 15004KT P6SM SCT150=



000
FTUS43 KDMX 291534 AAA
TAFMCW
TAF AMD
KMCW 291534Z 2916/3012 30013KT P6SM BKN035
      TEMPO 2916/2919 BKN020
     FM291900 28008KT P6SM SCT040
     FM300000 19004KT P6SM SKC=



000
FTUS43 KDMX 291312 AAA
TAFFOD
TAF AMD
KFOD 291312Z 2913/3012 30006KT P6SM SCT035
      TEMPO 2913/2916 BKN025
     FM300000 18003KT P6SM SCT250=



000
FTUS43 KDMX 291124
TAFDSM
TAF
KDSM 291124Z 2912/3012 30009KT P6SM SCT045
     FM292100 23006KT P6SM SKC
     FM300400 17004KT P6SM SCT150=



000
FTUS43 KDMX 291124
TAFMCW
TAF
KMCW 291124Z 2912/3012 30013KT P6SM BKN035
     FM291800 28008KT P6SM SCT040
     FM300000 19004KT P6SM SKC=



000
FTUS43 KDMX 291124
TAFFOD
TAF
KFOD 291124Z 2912/3012 30006KT P6SM SCT035
     FM300000 18003KT P6SM SCT250=



000
FTUS43 KDMX 291124
TAFALO
TAF
KALO 291124Z 2912/3012 30010KT P6SM BKN035
     FM291900 28008KT P6SM SCT040
     FM300000 21004KT P6SM SKC
     FM300700 15003KT P6SM SCT250=



000
FTUS43 KDMX 291124
TAFOTM
TAF
KOTM 291124Z 2912/3012 28009KT P6SM SCT040
     FM292300 19004KT P6SM SKC
     FM300800 15004KT P6SM SCT150=



000
FTUS43 KDMX 290520
TAFMCW
TAF
KMCW 290520Z 2906/3006 30013KT P6SM BKN035
     FM292100 VRB05KT P6SM SKC=



000
FTUS43 KDMX 290520
TAFDSM
TAF
KDSM 290520Z 2906/3006 30009KT P6SM SCT045
     FM292300 VRB04KT P6SM SKC=



000
FTUS43 KDMX 290520
TAFOTM
TAF
KOTM 290520Z 2906/3006 30009KT P6SM SKC=



000
FTUS43 KDMX 290520
TAFFOD
TAF
KFOD 290520Z 2906/3006 30009KT P6SM BKN040
     FM292000 VRB04KT P6SM SKC=



000
FTUS43 KDMX 290520
TAFALO
TAF
KALO 290520Z 2906/3006 30011KT P6SM BKN040
     FM292200 VRB04KT P6SM SKC=



000
FTUS43 KDMX 282325
TAFFOD
TAF
KFOD 282325Z 2900/2924 30009KT P6SM SCT040=



000
FTUS43 KDMX 282325
TAFALO
TAF
KALO 282325Z 2900/2924 29011KT P6SM BKN040=



000
FTUS43 KDMX 282325
TAFDSM
TAF
KDSM 282325Z 2900/2924 29010KT P6SM SCT045=



000
FTUS43 KDMX 282325
TAFMCW
TAF
KMCW 282325Z 2900/2924 30014KT P6SM BKN035
     FM291600 31010KT P6SM SCT045=



000
FTUS43 KDMX 282325
TAFOTM
TAF
KOTM 282325Z 2900/2924 29011KT P6SM SKC=



000
FTUS43 KDMX 282110 AAC
TAFMCW
TAF AMD
KMCW 282110Z 2821/2918 28018G25KT P6SM BKN035 OVC050
     FM282300 29012KT P6SM BKN050
     FM291200 31010KT P6SM SCT050=



000
FTUS43 KDMX 281909 AAA
TAFDSM
TAF AMD
KDSM 281909Z 2819/2918 30019G25KT P6SM SCT040
     FM282000 29019G25KT P6SM BKN040
     FM282300 29009KT P6SM FEW050
     FM291200 30008KT P6SM SKC=



000
FTUS43 KDMX 281908 AAA
TAFFOD
TAF AMD
KFOD 281908Z 2819/2918 28015G25KT P6SM BKN040
     FM282300 29010KT P6SM BKN040
     FM290600 28004KT P6SM SKC=



000
FTUS43 KDMX 281856 AAB
TAFMCW
TAF AMD
KMCW 281856Z 2819/2918 28020G28KT P6SM BKN035 OVC050
     FM282300 29012KT P6SM BKN050
     FM291200 31010KT P6SM SCT050=



000
FTUS43 KDMX 281833 AAA
TAFMCW
TAF AMD
KMCW 281833Z 2819/2918 28020G28KT P6SM BKN030 OVC050
     FM282300 29012KT P6SM BKN050
     FM291200 31010KT P6SM SCT050=



000
FTUS43 KDMX 281801 AAA
TAFALO
TAF AMD
KALO 281801Z 2818/2918 29016G24KT P6SM BKN035
     FM282300 28009KT P6SM BKN050
     FM291200 30008KT P6SM SCT050=



000
FTUS43 KDMX 281724
TAFOTM
TAF
KOTM 281724Z 2818/2918 29015G24KT P6SM FEW040
     FM282300 28008KT P6SM FEW040
     FM291200 30008KT P6SM SKC=



000
FTUS43 KDMX 281724
TAFMCW
TAF
KMCW 281724Z 2818/2918 28020G28KT P6SM BKN025 OVC050
     FM282300 29012KT P6SM BKN050
     FM291200 31010KT P6SM SKC=



000
FTUS43 KDMX 281724
TAFFOD
TAF
KFOD 281724Z 2818/2918 29015G25KT P6SM BKN035
     FM282300 29010KT P6SM BKN040
     FM290600 28004KT P6SM SKC=



000
FTUS43 KDMX 281724
TAFALO
TAF
KALO 281724Z 2818/2918 29016G24KT P6SM BKN030
     FM282300 28009KT P6SM BKN050
     FM291200 30008KT P6SM SKC=



000
FTUS43 KDMX 281724
TAFDSM
TAF
KDSM 281724Z 2818/2918 30020G27KT P6SM SCT035
     FM282300 29009KT P6SM FEW050
     FM291200 30008KT P6SM SKC=



000
FTUS43 KDMX 281714 AAC
TAFALO
TAF AMD
KALO 281714Z 2817/2912 29017G25KT P6SM BKN030
     FM282300 28011KT P6SM BKN040=



000
FTUS43 KDMX 281627 AAA
TAFOTM
TAF AMD
KOTM 281627Z 2816/2912 29016G24KT P6SM FEW040
     FM282300 28008KT P6SM FEW040=



000
FTUS43 KDMX 281627 AAB
TAFDSM
TAF AMD
KDSM 281627Z 2816/2912 29020G27KT P6SM SCT030
     FM282300 28008KT P6SM FEW050=



000
FTUS43 KDMX 281626 AAB
TAFALO
TAF AMD
KALO 281626Z 2816/2912 29017G23KT P6SM SCT030
     FM281700 29017G25KT P6SM BKN030
     FM282300 28011KT P6SM BKN040=



000
FTUS43 KDMX 281624 AAD
TAFMCW
TAF AMD
KMCW 281624Z 2816/2912 28018G26KT P6SM BKN025 OVC050
     FM282300 28014KT P6SM BKN050=



000
FTUS43 KDMX 281623 AAB
TAFFOD
TAF AMD
KFOD 281623Z 2816/2912 29014G22KT P6SM SCT030
     FM281800 29014G25KT P6SM BKN030
     FM282300 29010KT P6SM BKN040
     FM290600 29004KT P6SM SKC=



000
FTUS43 KDMX 281525 AAC
TAFMCW
TAF AMD
KMCW 281525Z 2815/2912 28019G26KT P6SM BKN030 OVC050
     FM282300 28014KT P6SM BKN050=



000
FTUS43 KDMX 281511 AAA
TAFALO
TAF AMD
KALO 281511Z 2815/2912 29016G23KT P6SM FEW030
     FM281700 29017G25KT P6SM BKN035
     FM282300 28011KT P6SM BKN040=



000
FTUS43 KDMX 281509 AAB
TAFMCW
TAF AMD
KMCW 281509Z 2815/2912 28019G26KT P6SM SCT030
     FM281700 28019G26KT P6SM BKN030 OVC050
     FM282300 28014KT P6SM BKN050=



000
FTUS43 KDMX 281440 AAA
TAFFOD
TAF AMD
KFOD 281440Z 2815/2912 29014G22KT P6SM SCT035
     FM281800 29014G25KT P6SM BKN035
     FM282300 29010KT P6SM BKN040
     FM290600 29004KT P6SM SKC=



000
FTUS43 KDMX 281406 AAA
TAFDSM
TAF AMD
KDSM 281406Z 2814/2912 28018G26KT P6SM SCT040
     FM282300 28008KT P6SM FEW050=



000
FTUS43 KDMX 281326 AAA
TAFMCW
TAF AMD
KMCW 281326Z 2813/2912 26012KT P6SM SKC
     FM281500 28019G26KT P6SM BKN030 OVC050
     FM282300 28014KT P6SM BKN050=



000
FTUS43 KDMX 281120
TAFMCW
TAF
KMCW 281120Z 2812/2912 28012KT P6SM SKC
     FM281500 28019G26KT P6SM BKN030 OVC050
     FM282300 28014KT P6SM BKN050=



000
FTUS43 KDMX 281120
TAFOTM
TAF
KOTM 281120Z 2812/2912 28010KT P6SM SKC
     FM281500 28017G25KT P6SM FEW040
     FM282300 28008KT P6SM FEW040=



000
FTUS43 KDMX 281120
TAFALO
TAF
KALO 281120Z 2812/2912 28012KT P6SM SKC
     FM281600 28017G25KT P6SM BKN040
     FM282300 28011KT P6SM BKN040=



000
FTUS43 KDMX 281120
TAFFOD
TAF
KFOD 281120Z 2812/2912 27008KT P6SM SKC
     FM281500 29014G22KT P6SM BKN035
     FM282300 29010KT P6SM BKN040
     FM290600 29004KT P6SM SKC=



000
FTUS43 KDMX 281120
TAFDSM
TAF
KDSM 281120Z 2812/2912 28011KT P6SM SKC
     FM281500 28018G26KT P6SM SCT040
     FM282300 28008KT P6SM FEW050=



000
FTUS43 KDMX 280520
TAFFOD
TAF
KFOD 280520Z 2806/2906 27010KT P6SM SCT150
     FM281500 29014G22KT P6SM SCT035
     FM282300 28010KT P6SM BKN035=



000
FTUS43 KDMX 280520
TAFMCW
TAF
KMCW 280520Z 2806/2906 28011KT P6SM SKC
     FM281500 28018G25KT P6SM BKN030 OVC060
     FM282300 28012KT P6SM BKN050=



000
FTUS43 KDMX 280520
TAFFOD
TAF
KFOD 280520Z 2806/2906 27010KT P6SM SCT150
     FM281500 29014G22KT P6SM SCT030
     FM282300 28010KT P6SM BKN035=



000
FTUS43 KDMX 280520
TAFDSM
TAF
KDSM 280520Z 2806/2906 31014KT P6SM SCT120 BKN200
     FM281600 29017G25KT P6SM SCT035
     FM282300 28008KT P6SM FEW040=



000
FTUS43 KDMX 280520
TAFOTM
TAF
KOTM 280520Z 2806/2906 30015G22KT P6SM FEW050
     FM280900 28010KT P6SM BKN070 OVC150
     FM281500 28015G24KT P6SM FEW040
     FM282300 28008KT P6SM FEW040=



000
FTUS43 KDMX 280520
TAFALO
TAF
KALO 280520Z 2806/2906 28010KT P6SM FEW050 BKN200
     FM281200 27012KT P6SM FEW035
     FM281600 28014G23KT P6SM BKN035
     FM282300 28010KT P6SM BKN040=



000
FTUS43 KDMX 280520
TAFALO
TAF
KALO 280520Z 2806/2906 28010KT P6SM FEW050 BKN200
     FM281200 27012KT P6SM FEW030
     FM281600 28014G23KT P6SM BKN035
     FM282300 28010KT P6SM BKN040=



    US Dept of Commerce
    National Oceanic and Atmospheric Administration
    National Weather Service
    1325 East West Highway
    Silver Spring, MD 20910
    Page Author: NWS Internet Services Team
Disclaimer
Information Quality
Credits
Glossary
Privacy Policy
Freedom of Information Act (FOIA)
About Us
Career Opportunities